Time;durP1;ratioP1;P1;durP2;ratioP2;P2;SDS_P1;SDS_P2;PMS_P1;PMS_P2;Temp;Humidity;BMP_temperature;BMP_pressure;BME280_temperature;BME280_humidity;BME280_pressure;Samples;Min_cycle;Max_cycle;Signal;HPM_P1;HPM_P2
2022/06/26 00:00:47;;;;;;;;;2.00;2.00;;;;;17.19;96.97;100547.59;6250482;22;44781;-78
2022/06/26 00:03:12;;;;;;;;;2.00;2.00;;;;;17.18;97.15;100546.66;6250720;22;45325;-79
2022/06/26 00:05:38;;;;;;;;;2.00;2.00;;;;;17.15;97.73;100556.59;6250296;22;45702;-78
2022/06/26 00:08:05;;;;;;;;;2.00;2.00;;;;;17.14;97.99;100560.19;6221671;22;45398;-78
2022/06/26 00:10:31;;;;;;;;;2.00;2.00;;;;;17.08;97.48;100549.53;6222171;22;44804;-79
2022/06/26 00:12:56;;;;;;;;;2.00;2.00;;;;;17.07;96.85;100553.16;6252496;22;45399;-79
2022/06/26 00:15:22;;;;;;;;;2.00;2.00;;;;;17.01;98.77;100551.44;6255605;22;44740;-79
2022/06/26 00:17:47;;;;;;;;;3.00;3.00;;;;;17.00;99.11;100563.97;6252642;22;45247;-79
2022/06/26 00:23:36;;;;;;;;;3.33;3.33;;;;;16.94;98.28;100563.19;6253771;22;45253;-80
2022/06/26 00:26:03;;;;;;;;;4.67;4.67;;;;;16.96;97.74;100570.28;6254061;22;45435;-79
2022/06/26 00:28:29;;;;;;;;;3.00;3.00;;;;;16.91;99.74;100557.88;6225636;22;45263;-79
2022/06/26 00:30:54;;;;;;;;;2.00;2.00;;;;;16.91;98.26;100563.25;6225992;22;45715;-79
2022/06/26 00:33:21;;;;;;;;;2.67;2.67;;;;;16.91;98.51;100558.75;6248526;22;45983;-78
2022/06/26 00:35:47;;;;;;;;;4.00;4.00;;;;;16.89;97.90;100554.31;6251364;22;45366;-79
2022/06/26 00:38:12;;;;;;;;;3.00;3.00;;;;;16.89;98.44;100562.38;6252068;22;44716;-78
2022/06/26 00:40:40;;;;;;;;;4.33;3.00;;;;;16.87;98.14;100558.84;6252839;22;45619;-79
2022/06/26 00:43:06;;;;;;;;;3.00;2.00;;;;;16.87;98.03;100561.50;6225034;22;48042;-79
2022/06/26 00:45:32;;;;;;;;;3.67;3.67;;;;;16.84;97.62;100557.06;6222464;22;45655;-78
2022/06/26 00:47:57;;;;;;;;;3.67;3.67;;;;;16.90;97.40;100556.09;6250768;22;45333;-78
2022/06/26 00:50:23;;;;;;;;;3.67;3.67;;;;;16.92;97.19;100554.25;6251002;22;45330;-79
2022/06/26 00:52:50;;;;;;;;;3.00;3.00;;;;;16.90;96.91;100556.97;6197688;22;45429;-80
2022/06/26 00:55:16;;;;;;;;;4.00;3.00;;;;;16.92;96.88;100563.19;6222481;22;45360;-79
2022/06/26 00:57:41;;;;;;;;;3.33;3.00;;;;;16.90;96.69;100567.72;6250692;22;45331;-79
2022/06/26 01:00:09;;;;;;;;;3.67;3.67;;;;;16.89;97.50;100575.81;6222998;22;45313;-79
2022/06/26 01:02:36;;;;;;;;;2.33;1.67;;;;;16.88;97.32;100582.06;6249599;22;45374;-79
2022/06/26 01:05:02;;;;;;;;;2.33;2.33;;;;;16.88;97.17;100580.28;6222341;22;45312;-79
2022/06/26 01:07:34;;;;;;;;;4.00;4.00;;;;;16.88;96.88;100577.59;6249040;22;44698;-79
2022/06/26 01:10:02;;;;;;;;;3.00;3.00;;;;;16.88;97.15;100574.91;6251298;22;45395;-79
2022/06/26 01:12:27;;;;;;;;;2.33;2.33;;;;;16.82;97.60;100569.63;6222756;22;45537;-79
2022/06/26 01:14:53;;;;;;;;;3.00;3.00;;;;;16.81;97.55;100578.59;6249603;22;45477;-79
2022/06/26 01:17:20;;;;;;;;;3.00;3.00;;;;;16.81;97.96;100594.72;6225572;22;45394;-79
2022/06/26 01:19:46;;;;;;;;;3.00;3.00;;;;;16.78;98.24;100592.03;6225865;22;45339;-79
2022/06/26 01:22:11;;;;;;;;;3.00;3.00;;;;;16.75;99.11;100584.91;6225065;22;47268;-79
2022/06/26 01:24:37;;;;;;;;;5.00;3.00;;;;;16.72;99.40;100584.06;6252536;22;45369;-79
2022/06/26 01:27:03;;;;;;;;;3.00;3.00;;;;;16.70;98.56;100581.38;6252979;22;44960;-80
2022/06/26 01:29:30;;;;;;;;;4.33;3.33;;;;;16.73;98.83;100583.16;6251522;22;45256;-79
2022/06/26 01:31:56;;;;;;;;;3.00;3.00;;;;;16.70;98.94;100585.88;6222745;22;48139;-79
2022/06/26 01:34:21;;;;;;;;;5.00;4.00;;;;;16.59;98.83;100578.84;6222918;22;45303;-79
2022/06/26 01:36:47;;;;;;;;;3.00;3.00;;;;;16.64;99.43;100591.31;6251342;22;45305;-79
2022/06/26 01:39:12;;;;;;;;;3.00;3.00;;;;;16.60;99.33;100596.75;6251880;22;45622;-79
2022/06/26 01:42:34;;;;;;;;;7.00;3.00;;;;;16.66;99.21;100605.63;6223910;22;47784;-78
2022/06/26 01:44:59;;;;;;;;;4.00;4.00;;;;;16.65;98.85;100595.81;6226638;22;45395;-78
2022/06/26 01:47:24;;;;;;;;;4.33;3.00;;;;;16.65;98.92;100601.19;6226201;22;45320;-78
2022/06/26 01:49:50;;;;;;;;;3.00;3.00;;;;;16.64;99.18;100604.75;6225641;22;45357;-78
2022/06/26 01:52:15;;;;;;;;;4.00;4.00;;;;;16.63;99.15;100609.25;6224950;22;47114;-79
2022/06/26 01:54:42;;;;;;;;;3.00;3.00;;;;;16.62;100.00;100599.41;6254601;22;45623;-80
2022/06/26 01:57:07;;;;;;;;;3.00;2.00;;;;;16.59;100.00;100602.13;6228143;22;45501;-80
2022/06/26 01:59:33;;;;;;;;;3.00;3.00;;;;;16.53;100.00;100605.78;6250047;22;45611;-79
2022/06/26 02:01:58;;;;;;;;;5.00;5.00;;;;;16.51;100.00;100602.22;6221288;22;46462;-79
2022/06/26 02:04:24;;;;;;;;;2.67;2.67;;;;;16.51;100.00;100599.53;6249815;22;45377;-80
2022/06/26 02:06:49;;;;;;;;;3.67;3.67;;;;;16.52;100.00;100592.38;6223421;22;45347;-80
2022/06/26 02:14:44;;;;;;;;;3.00;3.00;;;;;16.39;100.00;100597.91;6251287;22;44769;-79
2022/06/26 02:17:09;;;;;;;;;2.00;2.00;;;;;16.39;100.00;100597.91;6222985;22;45509;-80
2022/06/26 02:19:34;;;;;;;;;2.67;1.67;;;;;16.39;100.00;100602.38;6224240;22;45388;-80
2022/06/26 02:22:00;;;;;;;;;7.33;4.33;;;;;16.36;100.00;100606.00;6225411;22;47201;-79
2022/06/26 02:24:27;;;;;;;;;4.00;4.00;;;;;16.36;100.00;100603.31;6224286;22;45354;-80
2022/06/26 02:26:52;;;;;;;;;3.00;3.00;;;;;16.39;100.00;100618.50;6250627;22;45252;-79
2022/06/26 02:29:17;;;;;;;;;4.00;3.00;;;;;16.42;100.00;100614.88;6251487;22;45699;-79
2022/06/26 02:31:43;;;;;;;;;3.33;3.00;;;;;16.42;100.00;100607.72;6251024;22;45454;-79
2022/06/26 02:34:08;;;;;;;;;4.00;4.00;;;;;16.40;100.00;100609.50;6222233;22;45307;-79
2022/06/26 02:36:34;;;;;;;;;3.00;3.00;;;;;16.40;100.00;100604.13;6222669;22;45395;-80
2022/06/26 02:38:59;;;;;;;;;4.67;3.67;;;;;16.40;100.00;100604.13;6252352;22;44761;-80
2022/06/26 02:41:24;;;;;;;;;3.00;3.00;;;;;16.41;100.00;100600.56;6252129;22;45429;-80
2022/06/26 02:43:50;;;;;;;;;1.00;1.00;;;;;16.42;100.00;100594.31;6223523;22;45712;-79
2022/06/26 02:46:16;;;;;;;;;3.00;3.00;;;;;16.46;100.00;100597.81;6223120;22;45348;-80
2022/06/26 02:48:42;;;;;;;;;2.00;2.00;;;;;16.48;100.00;100596.91;6223326;22;45496;-79
2022/06/26 02:51:08;;;;;;;;;3.00;3.00;;;;;16.53;100.00;100596.84;6223605;22;45427;-79
2022/06/26 02:53:33;;;;;;;;;3.00;2.33;;;;;16.57;100.00;100601.28;6223743;22;45378;-79
2022/06/26 02:55:58;;;;;;;;;3.00;3.00;;;;;16.55;100.00;100598.59;6223083;22;45366;-78
2022/06/26 02:58:24;;;;;;;;;3.00;3.00;;;;;16.48;100.00;100596.91;6224963;22;45333;-78
2022/06/26 03:00:51;;;;;;;;;5.33;5.00;;;;;16.55;100.00;100608.47;6224165;22;47001;-79
2022/06/26 03:03:17;;;;;;;;;2.00;2.00;;;;;16.56;100.00;100608.44;6251230;22;45399;-79
2022/06/26 03:05:43;;;;;;;;;4.33;4.00;;;;;16.60;100.00;100614.63;6226054;22;45264;-79
2022/06/26 03:08:08;;;;;;;;;3.67;3.67;;;;;16.57;99.50;100610.19;6254572;22;45343;-79
2022/06/26 03:10:33;;;;;;;;;2.67;2.67;;;;;16.55;99.77;100603.97;6252948;22;45377;-78
2022/06/26 03:13:00;;;;;;;;;5.00;4.00;;;;;16.59;99.71;100621.81;6251543;22;45338;-78
2022/06/26 03:15:25;;;;;;;;;5.33;4.00;;;;;16.59;99.63;100615.56;6253971;22;45269;-79
2022/06/26 03:17:51;;;;;;;;;5.00;3.00;;;;;16.62;99.03;100620.00;6255901;22;45664;-79
2022/06/26 03:20:18;;;;;;;;;3.67;3.00;;;;;16.65;98.72;100626.22;6254464;22;44959;-79
2022/06/26 03:22:45;;;;;;;;;4.33;3.33;;;;;16.67;98.35;100615.47;6227262;22;45379;-79
2022/06/26 03:25:12;;;;;;;;;5.00;4.00;;;;;16.72;97.50;100621.66;6227894;22;45323;-79
2022/06/26 03:27:38;;;;;;;;;3.67;3.00;;;;;16.72;97.25;100627.03;6231825;22;45359;-80
2022/06/26 03:30:12;;;;;;;;;3.33;3.33;;;;;16.73;96.63;100626.13;6230891;22;46903;-79
2022/06/26 03:32:37;;;;;;;;;3.33;3.33;;;;;16.72;96.57;100618.97;6256175;22;45370;-79
2022/06/26 03:35:05;;;;;;;;;3.67;3.67;;;;;16.75;96.13;100621.63;6256703;22;45407;-78
2022/06/26 03:37:31;;;;;;;;;4.67;4.67;;;;;16.77;95.82;100625.19;6256276;22;45306;-79
2022/06/26 03:39:56;;;;;;;;;3.33;3.33;;;;;16.78;95.53;100635.00;6254927;22;45051;-79
2022/06/26 03:42:21;;;;;;;;;3.67;3.67;;;;;16.79;95.05;100632.28;6202556;22;45424;-78
2022/06/26 03:44:47;;;;;;;;;4.00;3.00;;;;;16.81;94.72;100626.94;6254210;22;45060;-78
2022/06/26 03:47:13;;;;;;;;;4.33;3.00;;;;;16.84;94.31;100621.50;6256121;22;45340;-79
2022/06/26 03:49:38;;;;;;;;;3.00;3.00;;;;;16.84;94.01;100620.63;6228426;22;46747;-80
2022/06/26 03:52:04;;;;;;;;;3.00;3.00;;;;;16.85;93.83;100633.16;6255987;22;45378;-79
2022/06/26 03:54:30;;;;;;;;;5.00;3.00;;;;;16.86;93.60;100641.19;6256593;22;45394;-79
2022/06/26 03:56:56;;;;;;;;;4.00;4.00;;;;;16.83;93.23;100619.75;6254587;22;44839;-79
2022/06/26 03:59:21;;;;;;;;;2.33;2.33;;;;;16.88;92.90;100627.75;6226864;22;46672;-79
2022/06/26 04:01:47;;;;;;;;;3.00;3.00;;;;;16.88;92.66;100633.13;6253626;22;45339;-79
2022/06/26 04:04:12;;;;;;;;;2.00;2.00;;;;;16.89;92.27;100632.22;6227155;22;45683;-79
2022/06/26 04:06:37;;;;;;;;;4.00;3.00;;;;;16.86;92.31;100635.81;6226717;22;45497;-79
2022/06/26 04:09:04;;;;;;;;;2.67;2.67;;;;;16.93;91.85;100650.06;6226664;22;48358;-78
2022/06/26 04:11:29;;;;;;;;;2.00;2.00;;;;;16.91;91.63;100650.09;6253465;22;45330;-79
2022/06/26 04:13:55;;;;;;;;;3.67;3.33;;;;;16.90;91.34;100650.09;6254593;22;44959;-79
2022/06/26 04:16:20;;;;;;;;;3.67;3.00;;;;;16.90;91.14;100659.03;6251404;22;45288;-79
2022/06/26 04:18:46;;;;;;;;;1.33;1.33;;;;;16.86;91.25;100659.09;6251590;22;46114;-79
2022/06/26 04:21:12;;;;;;;;;2.67;2.67;;;;;16.86;90.79;100672.53;6249671;22;44782;-79
2022/06/26 04:23:38;;;;;;;;;1.33;1.33;;;;;16.83;90.41;100673.47;6250145;22;45734;-79
2022/06/26 04:26:04;;;;;;;;;2.67;2.67;;;;;16.80;90.23;100665.41;6222856;22;45441;-79
2022/06/26 04:28:31;;;;;;;;;3.33;3.33;;;;;16.84;90.32;100677.91;6221814;22;47032;-78
2022/06/26 04:30:56;;;;;;;;;4.00;4.00;;;;;16.81;89.96;100677.97;6224941;22;45615;-79
2022/06/26 04:33:23;;;;;;;;;4.00;4.00;;;;;16.82;89.55;100684.22;6225173;22;45349;-78
2022/06/26 04:35:49;;;;;;;;;2.00;2.00;;;;;16.84;89.33;100690.47;6225181;22;45350;-79
2022/06/26 04:38:14;;;;;;;;;3.00;3.00;;;;;16.79;89.17;100679.75;6225172;22;46842;-79
2022/06/26 04:40:39;;;;;;;;;3.00;3.00;;;;;16.85;88.57;100682.41;6253044;22;45667;-78
2022/06/26 04:43:05;;;;;;;;;3.67;3.67;;;;;16.89;88.74;100678.75;6225358;22;45281;-78
2022/06/26 04:45:30;;;;;;;;;3.00;3.00;;;;;16.92;88.45;100676.03;6221805;22;45296;-78
2022/06/26 04:47:56;;;;;;;;;1.67;1.67;;;;;16.96;88.08;100671.50;6247183;22;46984;-79
2022/06/26 04:50:21;;;;;;;;;3.67;3.67;;;;;16.98;87.73;100684.00;6249838;22;45291;-80
2022/06/26 04:52:49;;;;;;;;;3.33;2.33;;;;;17.00;88.09;100687.56;6248593;22;45391;-79
2022/06/26 04:55:15;;;;;;;;;4.67;3.00;;;;;17.06;87.29;100691.09;6247093;22;45453;-79
2022/06/26 04:57:42;;;;;;;;;2.67;2.33;;;;;17.11;87.20;100689.25;6221935;22;47724;-79
2022/06/26 05:00:10;;;;;;;;;4.33;2.00;;;;;17.18;86.69;100697.16;6221762;22;45347;-79
2022/06/26 05:02:37;;;;;;;;;5.00;4.00;;;;;17.25;86.13;100703.38;6223711;22;45301;-79
2022/06/26 05:05:03;;;;;;;;;2.67;2.67;;;;;17.32;86.27;100699.66;6250137;22;45429;-79
2022/06/26 05:07:29;;;;;;;;;4.00;4.00;;;;;17.34;85.47;100697.84;6224192;22;48089;-79
2022/06/26 05:10:34;;;;;;;;;1.33;1.00;;;;;17.43;85.03;100709.38;6254109;22;45314;-80
2022/06/26 05:13:00;;;;;;;;;2.67;2.33;;;;;17.44;84.46;100706.66;6225117;22;45455;-80
2022/06/26 05:15:26;;;;;;;;;3.67;3.00;;;;;17.44;84.82;100713.84;6250231;22;45464;-79
2022/06/26 05:17:51;;;;;;;;;6.00;5.00;;;;;17.43;84.26;100718.34;6250278;22;45340;-80
2022/06/26 05:20:17;;;;;;;;;3.33;3.33;;;;;17.44;83.80;100708.47;6223592;22;45347;-78
2022/06/26 05:22:42;;;;;;;;;5.00;3.33;;;;;17.53;83.56;100717.31;6223484;22;44820;-78
2022/06/26 05:25:08;;;;;;;;;4.00;4.00;;;;;17.55;82.67;100712.78;6249457;22;45663;-79
2022/06/26 05:27:33;;;;;;;;;3.00;3.00;;;;;17.59;82.65;100713.59;6248237;22;46698;-79
2022/06/26 05:29:59;;;;;;;;;2.00;2.00;;;;;17.59;82.25;100703.75;6250171;22;45344;-79
2022/06/26 05:32:25;;;;;;;;;2.67;2.67;;;;;17.65;82.34;100707.25;6223382;22;45265;-79
2022/06/26 05:34:50;;;;;;;;;3.00;3.00;;;;;17.66;81.87;100709.91;6250163;22;44694;-79
2022/06/26 05:37:16;;;;;;;;;4.33;4.33;;;;;17.75;81.55;100712.47;6248439;22;46977;-79
2022/06/26 05:39:41;;;;;;;;;3.67;2.00;;;;;17.80;81.14;100720.47;6246954;22;45267;-79
2022/06/26 05:42:06;;;;;;;;;3.00;3.00;;;;;17.86;80.71;100719.53;6246676;22;45363;-79
2022/06/26 05:44:39;;;;;;;;;4.00;3.00;;;;;17.91;80.18;100714.94;6251132;22;45656;-79
2022/06/26 05:47:05;;;;;;;;;2.67;2.67;;;;;17.89;78.84;100716.75;6249096;22;46069;-79
2022/06/26 05:49:31;;;;;;;;;2.67;2.33;;;;;17.89;78.80;100712.25;6274406;22;45333;-79
2022/06/26 05:51:56;;;;;;;;;2.00;2.00;;;;;17.97;78.14;100709.44;6250585;22;45357;-79
2022/06/26 05:54:23;;;;;;;;;3.00;3.00;;;;;18.04;77.25;100711.13;6274897;22;45370;-79
2022/06/26 05:56:49;;;;;;;;;4.00;3.00;;;;;18.15;77.21;100719.88;6248998;22;46339;-78
2022/06/26 05:59:16;;;;;;;;;3.00;3.00;;;;;18.23;77.05;100710.81;6250799;22;45669;-78
2022/06/26 06:01:41;;;;;;;;;2.67;2.67;;;;;18.29;75.92;100718.78;6247263;22;45435;-79
2022/06/26 06:04:08;;;;;;;;;3.00;3.00;;;;;18.32;75.77;100721.38;6247457;22;45388;-79
2022/06/26 06:06:34;;;;;;;;;1.33;1.33;;;;;18.30;75.34;100724.13;6247378;22;46763;-78
2022/06/26 06:08:59;;;;;;;;;1.67;1.67;;;;;18.35;74.41;100732.13;6250364;22;45286;-78
2022/06/26 06:11:26;;;;;;;;;4.00;2.00;;;;;18.40;74.34;100735.63;6275131;22;45352;-79
2022/06/26 06:13:51;;;;;;;;;3.00;3.00;;;;;18.51;74.09;100738.13;6249592;22;45383;-80
2022/06/26 06:16:17;;;;;;;;;5.00;2.00;;;;;18.61;74.19;100745.09;6250914;22;45258;-80
2022/06/26 06:18:43;;;;;;;;;3.00;2.00;;;;;18.65;73.57;100745.94;6249557;22;45434;-81
2022/06/26 06:21:08;;;;;;;;;2.67;2.67;;;;;18.70;72.73;100736.81;6279144;22;45797;-80
2022/06/26 06:23:35;;;;;;;;;2.67;2.67;;;;;18.82;72.68;100738.44;6256427;22;45478;-80
2022/06/26 06:26:00;;;;;;;;;2.33;2.33;;;;;18.86;72.54;100733.88;6251386;22;47116;-80
2022/06/26 06:28:26;;;;;;;;;2.00;2.00;;;;;19.01;71.33;100743.44;6251627;22;45412;-80
2022/06/26 06:30:53;;;;;;;;;2.00;2.00;;;;;19.05;70.59;100734.41;6255291;22;45381;-80
2022/06/26 06:33:18;;;;;;;;;2.00;2.00;;;;;19.13;70.71;100745.91;6250950;22;45370;-80
2022/06/26 06:35:44;;;;;;;;;3.00;3.00;;;;;19.18;70.70;100749.38;6248557;22;47223;-79
2022/06/26 06:38:09;;;;;;;;;2.00;2.00;;;;;19.24;69.61;100748.38;6249608;22;45438;-80
2022/06/26 06:40:35;;;;;;;;;4.33;3.00;;;;;19.31;68.92;100753.59;6251142;22;45296;-80
2022/06/26 06:43:00;;;;;;;;;2.00;2.00;;;;;19.38;68.84;100757.91;6253251;22;45274;-79
2022/06/26 06:45:26;;;;;;;;;1.33;1.33;;;;;19.43;67.97;100743.44;6250822;22;46863;-80
2022/06/26 06:47:52;;;;;;;;;3.67;3.67;;;;;19.50;67.48;100750.47;6276516;22;45243;-80
2022/06/26 06:50:18;;;;;;;;;2.33;2.33;;;;;19.57;67.41;100754.81;6250507;22;45391;-79
2022/06/26 06:52:43;;;;;;;;;4.00;2.00;;;;;19.72;66.65;100753.63;6251097;22;44770;-79
2022/06/26 06:55:09;;;;;;;;;3.00;1.33;;;;;19.91;66.07;100754.94;6251189;22;45726;-79
2022/06/26 06:57:34;;;;;;;;;3.75;2.25;;;;;20.28;65.02;100754.03;6250187;22;45697;-80
2022/06/26 07:00:01;;;;;;;;;2.25;2.00;;;;;20.46;63.68;100758.06;6251422;22;45274;-80
2022/06/26 07:02:27;;;;;;;;;2.00;2.00;;;;;20.55;63.48;100757.78;6252128;22;45358;-79
2022/06/26 07:04:52;;;;;;;;;3.00;3.00;;;;;20.61;62.88;100753.19;6251411;22;45250;-79
2022/06/26 07:07:17;;;;;;;;;2.50;2.50;;;;;20.72;62.72;100760.09;6252876;22;45631;-80
2022/06/26 07:09:43;;;;;;;;;1.00;1.00;;;;;20.99;62.04;100757.53;6254392;22;45682;-80
2022/06/26 07:12:09;;;;;;;;;2.00;2.00;;;;;21.27;61.20;100763.00;6257501;22;44895;-80
2022/06/26 07:14:34;;;;;;;;;4.00;2.00;;;;;21.38;60.01;100765.38;6282010;22;46637;-80
2022/06/26 07:17:00;;;;;;;;;2.00;2.00;;;;;21.51;59.59;100766.84;6249769;22;44826;-80
2022/06/26 07:19:25;;;;;;;;;3.00;3.00;;;;;21.53;57.98;100775.78;6276026;22;45232;-79
2022/06/26 07:21:51;;;;;;;;;1.00;1.00;;;;;21.43;57.65;100776.09;6253653;22;45398;-80
2022/06/26 07:24:25;;;;;;;;;3.33;3.33;;;;;21.51;58.46;100772.25;6251714;22;45284;-80
2022/06/26 07:26:51;;;;;;;;;1.33;1.33;;;;;21.69;57.81;100787.03;6250032;22;45438;-79
2022/06/26 07:29:16;;;;;;;;;1.00;1.00;;;;;21.77;56.23;100789.47;6277038;22;45686;-79
2022/06/26 07:31:42;;;;;;;;;2.00;2.00;;;;;21.69;55.53;100797.84;6251969;22;45390;-79
2022/06/26 07:34:13;;;;;;;;;3.33;3.33;;;;;21.55;56.46;100800.97;6250273;22;46566;-78
2022/06/26 07:36:41;;;;;;;;;2.33;1.00;;;;;21.78;56.80;100802.97;6252596;22;45328;-79
2022/06/26 07:39:23;;;;;;;;;2.50;1.00;;;;;21.97;55.61;100814.09;6250014;22;45715;-79
2022/06/26 07:41:50;;;;;;;;;2.00;2.00;;;;;22.02;55.65;100808.53;6251101;22;45401;-78
2022/06/26 07:44:16;;;;;;;;;2.67;2.67;;;;;22.08;54.76;100805.63;6249932;22;46002;-78
2022/06/26 07:46:41;;;;;;;;;3.00;1.75;;;;;22.17;54.21;100815.28;6254010;22;45239;-79
2022/06/26 07:50:03;;;;;;;;;1.50;1.50;;;;;22.09;54.25;100814.63;6277899;22;45484;-79
2022/06/26 07:52:28;;;;;;;;;3.00;2.00;;;;;22.07;54.08;100811.97;6279140;22;45461;-79
2022/06/26 07:54:54;;;;;;;;;2.33;2.33;;;;;22.04;54.28;100819.34;6276774;22;47471;-79
2022/06/26 07:57:19;;;;;;;;;2.50;2.00;;;;;22.02;53.93;100811.25;6253190;22;45349;-79
2022/06/26 07:59:44;;;;;;;;;3.50;2.25;;;;;22.08;53.46;100810.16;6254779;22;45859;-79
2022/06/26 08:02:10;;;;;;;;;4.25;2.75;;;;;22.13;52.96;100809.06;6249914;22;45303;-80
2022/06/26 08:04:35;;;;;;;;;1.75;1.75;;;;;22.22;52.99;100809.69;6252337;22;46074;-79
2022/06/26 08:07:01;;;;;;;;;1.50;1.50;;;;;22.18;52.42;100785.44;6250737;22;45405;-79
2022/06/26 08:09:27;;;;;;;;;2.00;2.00;;;;;22.36;52.87;100793.91;6252074;22;45411;-80
2022/06/26 08:11:53;;;;;;;;;4.50;2.00;;;;;22.36;52.09;100802.06;6253045;22;45369;-80
2022/06/26 08:14:19;;;;;;;;;2.00;2.00;;;;;22.27;51.07;100794.22;6277339;22;46508;-80
2022/06/26 08:16:45;;;;;;;;;2.00;2.00;;;;;22.16;52.70;100802.69;6250466;22;45280;-80
2022/06/26 08:19:10;;;;;;;;;1.00;1.00;;;;;22.23;52.95;100798.81;6252290;22;45376;-80
2022/06/26 08:24:20;;;;;;;;;1.00;1.00;;;;;22.18;51.79;100795.38;6252624;22;44858;-80
2022/06/26 08:26:45;;;;;;;;;2.00;1.25;;;;;22.21;51.41;100795.28;6252243;22;45311;-80
2022/06/26 08:29:10;;;;;;;;;2.00;2.00;;;;;22.24;51.35;100802.44;6251748;22;45379;-80
2022/06/26 08:31:36;;;;;;;;;1.25;1.25;;;;;22.25;51.58;100791.56;6276766;22;45496;-80
2022/06/26 08:34:01;;;;;;;;;1.00;1.00;;;;;22.25;50.81;100790.69;6249195;22;48019;-80
2022/06/26 08:36:27;;;;;;;;;1.25;1.25;;;;;22.32;48.10;100794.97;6276246;22;45326;-80
2022/06/26 08:38:52;;;;;;;;;1.00;1.00;;;;;22.28;49.30;100804.09;6249620;22;44902;-80
2022/06/26 08:41:26;;;;;;;;;3.00;3.00;;;;;22.32;49.26;100803.09;6252398;22;45597;-80
2022/06/26 08:43:52;;;;;;;;;2.00;2.00;;;;;22.34;49.94;100806.63;6248582;22;46900;-80
2022/06/26 08:46:23;;;;;;;;;0.00;0.00;;;;;22.33;49.09;100791.31;6250709;22;45650;-80
2022/06/26 08:48:53;;;;;;;;;1.75;1.75;;;;;22.32;49.29;100806.69;6250223;22;44732;-80
2022/06/26 08:51:19;;;;;;;;;2.00;2.00;;;;;22.43;48.92;100805.44;6250490;22;45267;-80
2022/06/26 08:53:45;;;;;;;;;1.25;1.25;;;;;22.68;49.21;100805.44;6252520;22;45410;-80
2022/06/26 08:56:11;;;;;;;;;3.00;2.00;;;;;22.95;49.11;100793.63;6277505;22;45368;-79
2022/06/26 08:58:36;;;;;;;;;2.00;2.00;;;;;23.31;48.06;100792.34;6276063;22;45335;-79
2022/06/26 09:01:04;;;;;;;;;3.00;1.50;;;;;23.52;45.06;100785.22;6276573;22;45505;-80
2022/06/26 09:03:31;;;;;;;;;1.00;1.00;;;;;23.51;44.37;100784.31;6251892;22;45991;-80
2022/06/26 09:05:58;;;;;;;;;1.00;1.00;;;;;23.49;44.12;100782.59;6253191;22;45350;-80
2022/06/26 09:08:25;;;;;;;;;1.00;1.00;;;;;23.58;44.39;100776.81;6254697;22;45347;-80
2022/06/26 09:10:51;;;;;;;;;1.00;1.00;;;;;23.68;44.13;100772.78;6253791;22;45359;-80
2022/06/26 09:13:16;;;;;;;;;2.00;2.00;;;;;23.73;43.72;100759.94;6278367;22;46866;-80
2022/06/26 09:15:44;;;;;;;;;1.00;1.00;;;;;23.91;43.42;100773.72;6254700;22;45314;-80
2022/06/26 09:18:11;;;;;;;;;0.75;0.75;;;;;23.94;42.43;100763.63;6249992;22;45419;-80
2022/06/26 09:20:50;;;;;;;;;0.00;0.00;;;;;24.01;41.96;100764.25;6252218;22;45402;-80
2022/06/26 09:23:16;;;;;;;;;0.50;0.50;;;;;24.07;41.42;100761.25;6275027;22;46703;-80
2022/06/26 09:25:43;;;;;;;;;1.00;1.00;;;;;24.21;41.42;100746.22;6249962;22;45365;-80
2022/06/26 09:28:20;;;;;;;;;2.25;2.00;;;;;24.33;40.49;100748.41;6251050;22;45329;-80
2022/06/26 09:30:50;;;;;;;;;2.25;2.00;;;;;24.55;42.13;100751.13;6253770;22;45457;-80
2022/06/26 09:33:21;;;;;;;;;2.00;2.00;;;;;24.60;41.34;100750.91;6254624;22;46064;-80
2022/06/26 09:35:47;;;;;;;;;1.25;1.00;;;;;24.54;40.64;100752.06;6253433;22;45709;-80
2022/06/26 09:38:38;;;;;;;;;1.25;1.25;;;;;24.42;40.36;100755.28;6250943;22;45335;-80
2022/06/26 09:41:07;;;;;;;;;1.00;1.00;;;;;24.33;40.76;100757.44;6254649;22;44839;-80
2022/06/26 09:43:42;;;;;;;;;1.25;1.25;;;;;24.34;40.32;100761.94;6253286;22;46055;-80
2022/06/26 09:46:10;;;;;;;;;2.50;1.00;;;;;24.26;39.87;100757.78;6278009;22;45371;-80
2022/06/26 09:49:32;;;;;;;;;2.00;2.00;;;;;24.10;38.57;100758.44;6250283;22;45239;-80
2022/06/26 09:51:57;;;;;;;;;2.00;2.00;;;;;23.90;41.30;100750.25;6254399;22;45362;-80
2022/06/26 09:54:23;;;;;;;;;3.33;2.00;;;;;23.89;40.95;100749.31;6250082;22;45716;-81
2022/06/26 09:56:49;;;;;;;;;1.00;1.00;;;;;23.93;40.92;100750.97;6250071;22;45347;-80
2022/06/26 09:59:17;;;;;;;;;1.75;1.75;;;;;23.98;40.77;100750.81;6252271;22;45346;-79
2022/06/26 10:07:13;;;;;;;;;1.00;1.00;;;;;23.71;38.85;100756.38;6251053;22;45720;-80
2022/06/26 10:09:40;;;;;;;;;1.00;1.00;;;;;23.60;40.27;100755.91;6251890;22;45408;-81
2022/06/26 10:12:06;;;;;;;;;0.00;0.00;;;;;23.67;37.82;100754.75;6249584;22;45469;-80
2022/06/26 10:14:39;;;;;;;;;2.00;2.00;;;;;23.65;39.98;100745.78;6251060;22;45282;-80
2022/06/26 10:17:33;;;;;;;;;1.00;1.00;;;;;23.70;40.03;100749.16;6252013;22;45409;-80
2022/06/26 10:20:02;;;;;;;;;2.67;1.33;;;;;23.71;40.05;100748.25;6250959;22;45397;-80
2022/06/26 10:22:41;;;;;;;;;1.00;1.00;;;;;23.82;38.89;100736.09;6252992;22;45362;-80
2022/06/26 10:25:09;;;;;;;;;2.00;2.00;;;;;23.93;37.09;100742.81;6251946;22;45894;-80
2022/06/26 10:27:36;;;;;;;;;0.50;0.50;;;;;23.80;37.78;100732.56;6251268;22;45691;-80
2022/06/26 10:30:08;;;;;;;;;1.00;1.00;;;;;23.80;38.57;100743.41;6277334;22;45397;-80
2022/06/26 10:32:34;;;;;;;;;1.00;1.00;;;;;23.82;37.93;100742.41;6251743;22;45389;-80
2022/06/26 10:34:59;;;;;;;;;2.00;1.00;;;;;23.80;38.91;100738.84;6251187;22;45353;-80
2022/06/26 10:37:27;;;;;;;;;1.00;1.00;;;;;23.81;36.81;100740.63;6252037;22;45572;-80
2022/06/26 10:39:54;;;;;;;;;1.00;1.00;;;;;23.82;38.52;100752.38;6251350;22;45372;-80
2022/06/26 10:45:24;;;;;;;;;0.50;0.50;;;;;23.83;37.57;100737.84;6250612;22;45801;-80
2022/06/26 10:47:56;;;;;;;;;0.50;0.50;;;;;23.91;37.77;100746.56;6250414;22;45363;-80
2022/06/26 10:50:38;;;;;;;;;1.00;1.00;;;;;23.89;35.26;100762.03;6251330;22;45340;-80
2022/06/26 10:53:19;;;;;;;;;3.00;1.00;;;;;23.84;37.03;100758.63;6251104;22;45346;-80
2022/06/26 10:55:53;;;;;;;;;1.00;1.00;;;;;23.83;37.42;100759.56;6223678;22;47021;-80
2022/06/26 10:58:23;;;;;;;;;2.25;2.25;;;;;23.89;36.53;100751.16;6223652;22;45375;-80
2022/06/26 11:00:52;;;;;;;;;3.33;1.00;;;;;23.85;36.04;100752.25;6223321;22;45505;-80
2022/06/26 11:03:19;;;;;;;;;2.00;2.00;;;;;23.86;36.94;100754.91;6226638;22;45889;-80
2022/06/26 11:05:58;;;;;;;;;2.00;2.00;;;;;23.85;36.55;100747.69;6253491;22;45335;-81
2022/06/26 11:08:32;;;;;;;;;3.25;2.00;;;;;23.87;37.36;100744.91;6223895;22;45420;-80
2022/06/26 11:11:10;;;;;;;;;1.75;1.75;;;;;23.95;37.91;100734.63;6226756;22;45480;-80
2022/06/26 11:13:51;;;;;;;;;2.33;2.33;;;;;24.00;37.26;100740.75;6255792;22;45393;-80
2022/06/26 11:16:17;;;;;;;;;1.00;1.00;;;;;24.07;37.19;100736.81;6252930;22;47622;-80
2022/06/26 11:18:42;;;;;;;;;1.00;1.00;;;;;24.16;37.34;100731.00;6227274;22;45358;-80
2022/06/26 11:21:08;;;;;;;;;3.00;1.00;;;;;24.33;37.78;100732.09;6228131;22;45433;-80
2022/06/26 11:23:36;;;;;;;;;4.00;2.67;;;;;24.53;37.72;100736.72;6256000;22;44808;-80
2022/06/26 11:26:08;;;;;;;;;2.25;2.25;;;;;24.65;37.04;100727.13;6256226;22;45418;-80
2022/06/26 11:28:40;;;;;;;;;1.25;1.00;;;;;24.58;36.73;100722.91;6229320;22;45350;-80
2022/06/26 11:31:08;;;;;;;;;3.33;2.00;;;;;24.57;36.85;100729.31;6230197;22;45302;-80
2022/06/26 11:33:36;;;;;;;;;2.00;2.00;;;;;24.64;37.48;100726.25;6227191;22;45540;-80
2022/06/26 11:36:07;;;;;;;;;2.67;2.67;;;;;24.74;37.48;100722.16;6252649;22;45329;-80
2022/06/26 11:38:34;;;;;;;;;1.50;1.50;;;;;24.65;33.81;100713.53;6226424;22;45438;-81
2022/06/26 11:41:02;;;;;;;;;1.00;1.00;;;;;24.32;36.55;100724.91;6253758;22;45432;-78
2022/06/26 11:43:29;;;;;;;;;2.00;2.00;;;;;24.15;37.12;100728.34;6254972;22;45284;-79
2022/06/26 11:46:00;;;;;;;;;2.00;2.00;;;;;24.04;36.67;100727.94;6251562;22;45503;-80